Liberty Clipper — WDE9221 — position and weather

sailwx.info

Track history (hours):
 
Tides and Currents Weather Stations Pressure Air Temp Water Temp Dewpoint Dewpoint Depression Visibility Wind Speed Wind Dir Waves Ship Positions

Liberty Clipper

Owner: Schooner Liberty Clipper, Inc., Wellesley, MA. More information available from US FCC via Universal Licensing System and Coast Guard Vessel Documentation Center.

Last reported at 2017-May-24 08:02 UTC. Time now 2017-May-25 03:08 UTC.
Position N 40°45' W 073°58'.

Length 30 m.

Type: Sailing vessel. MMSI: 367414870.

Date/timePositionNaut miles runAvg speedWind from/ knotsBaromVisibWave heightAir tempDewpointWater temp
2017-May-24 08:02N 40°45' W 073°58'0 7.2
2017-May-24 08:00N 40°45' W 073°58'3 5.9
2017-May-24 07:30N 40°42' W 073°60'2 4.9
2017-May-24 07:00N 40°41' W 074°02'2 3.7
2017-May-24 06:30N 40°39' W 074°03'2 4.5
2017-May-24 06:00N 40°37' W 074°03'2 4.1
2017-May-24 05:30N 40°35' W 074°02'2 3.3
2017-May-24 05:00N 40°33' W 074°01'52 4.7
2017-May-23 18:02N 39°42' W 073°59'1 5.8
2017-May-23 17:51N 39°41' W 073°59'  
Track history (hours):
 
Tides and Currents Weather Stations Pressure Air Temp Water Temp Dewpoint Dewpoint Depression Visibility Wind Speed Wind Dir Waves Ship Positions

Liberty Clipper

Owner: Schooner Liberty Clipper, Inc., Wellesley, MA. More information available from US FCC via Universal Licensing System and Coast Guard Vessel Documentation Center.

Last reported at 2017-May-24 08:02 UTC. Time now 2017-May-25 03:08 UTC.
Position N 40°45' W 073°58'.

Length 30 m.

Type: Sailing vessel. MMSI: 367414870.

Date/timePositionNaut miles runAvg speedWind from/ knotsBaromVisibWave heightAir tempDewpointWater temp
2017-May-24 08:02N 40°45' W 073°58'0 7.2
2017-May-24 08:00N 40°45' W 073°58'3 5.9
2017-May-24 07:30N 40°42' W 073°60'2 4.9
2017-May-24 07:00N 40°41' W 074°02'2 3.7
2017-May-24 06:30N 40°39' W 074°03'2 4.5
2017-May-24 06:00N 40°37' W 074°03'2 4.1
2017-May-24 05:30N 40°35' W 074°02'2 3.3
2017-May-24 05:00N 40°33' W 074°01'52 4.7
2017-May-23 18:02N 39°42' W 073°59'1 5.8
2017-May-23 17:51N 39°41' W 073°59'  

Dump ship's entire track history